createdAt,value
2018-04-07T00:00:23.889Z,22.80
2018-04-07T00:01:26.417Z,22.84
2018-04-07T00:02:28.920Z,22.90
2018-04-07T00:03:31.429Z,22.95
2018-04-07T00:04:33.937Z,23.01
2018-04-07T00:05:36.440Z,23.03
2018-04-07T00:06:38.968Z,23.05
2018-04-07T00:07:41.481Z,23.09
2018-04-07T00:08:43.987Z,23.09
2018-04-07T00:09:46.513Z,23.09
2018-04-07T00:10:49.035Z,23.11
2018-04-07T00:11:51.564Z,23.13
2018-04-07T00:12:54.073Z,23.14
2018-04-07T00:13:56.651Z,23.13
2018-04-07T00:14:59.165Z,23.12
2018-04-07T00:16:01.672Z,23.10
2018-04-07T00:17:04.196Z,23.10
2018-04-07T00:18:06.702Z,23.08
2018-04-07T00:19:09.233Z,23.05
2018-04-07T00:20:11.742Z,23.03
2018-04-07T00:21:14.249Z,23.01
2018-04-07T00:22:16.773Z,22.99
2018-04-07T00:23:19.285Z,22.96
2018-04-07T00:24:21.795Z,22.94
2018-04-07T00:25:24.302Z,22.92
2018-04-07T00:26:26.809Z,22.89
2018-04-07T00:27:29.333Z,22.87
2018-04-07T00:28:31.842Z,22.85
2018-04-07T00:29:34.364Z,22.85
2018-04-07T00:30:36.868Z,22.88
2018-04-07T00:31:39.379Z,22.90
2018-04-07T00:32:41.912Z,22.93
2018-04-07T00:33:44.421Z,22.95
2018-04-07T00:34:46.925Z,23.00
2018-04-07T00:35:49.433Z,23.05
2018-04-07T00:36:51.937Z,23.05
2018-04-07T00:37:54.459Z,23.09
2018-04-07T00:38:56.965Z,23.12
2018-04-07T00:39:59.464Z,23.11
2018-04-07T00:41:01.973Z,23.15
2018-04-07T00:42:04.477Z,23.15
2018-04-07T00:43:06.998Z,23.14
2018-04-07T00:44:09.504Z,23.13
2018-04-07T00:45:12.011Z,23.11
2018-04-07T00:46:14.517Z,23.10
2018-04-07T00:47:17.026Z,23.09
2018-04-07T00:48:19.544Z,23.07
2018-04-07T00:49:22.057Z,23.04
2018-04-07T00:50:24.568Z,23.04
2018-04-07T00:51:27.101Z,23.03
2018-04-07T00:52:41.537Z,23.00
2018-04-07T00:53:44.056Z,22.97
2018-04-07T00:54:46.561Z,22.94
2018-04-07T00:55:49.897Z,22.92
2018-04-07T00:56:52.404Z,22.90
2018-04-07T00:57:54.905Z,22.88
2018-04-07T00:58:57.424Z,22.86
2018-04-07T00:59:59.935Z,22.84
2018-04-07T01:01:02.445Z,22.83
2018-04-07T01:02:04.956Z,22.83
2018-04-07T01:03:07.465Z,22.85
2018-04-07T01:04:09.993Z,22.92
2018-04-07T01:05:12.551Z,22.93
2018-04-07T01:06:15.073Z,23.00
2018-04-07T01:07:17.613Z,23.05
2018-04-07T01:08:20.124Z,23.10
2018-04-07T01:09:22.649Z,23.12
2018-04-07T01:10:25.148Z,23.15
2018-04-07T01:11:27.652Z,23.18
2018-04-07T01:12:30.164Z,23.17
2018-04-07T01:13:32.668Z,23.16
2018-04-07T01:14:35.204Z,23.15
2018-04-07T01:15:37.708Z,23.16
2018-04-07T01:16:40.224Z,23.14
2018-04-07T01:17:42.734Z,23.15
2018-04-07T01:18:45.304Z,23.15
2018-04-07T01:19:47.825Z,23.13
2018-04-07T01:20:50.330Z,23.10
2018-04-07T01:21:52.835Z,23.07
2018-04-07T01:22:55.342Z,23.05
2018-04-07T01:23:58.009Z,23.03
2018-04-07T01:25:00.554Z,23.00
2018-04-07T01:26:03.057Z,22.98
2018-04-07T01:27:05.562Z,22.96
2018-04-07T01:28:08.148Z,22.93
2018-04-07T01:29:10.659Z,22.91
2018-04-07T01:30:13.181Z,22.88
2018-04-07T01:31:15.689Z,22.86
2018-04-07T01:32:18.199Z,22.83
2018-04-07T01:33:20.700Z,22.81
2018-04-07T01:34:23.206Z,22.80
2018-04-07T01:35:25.741Z,22.84
2018-04-07T01:36:28.244Z,22.87
2018-04-07T01:37:30.748Z,22.92
2018-04-07T01:38:33.264Z,22.98
2018-04-07T01:39:35.797Z,23.01
2018-04-07T01:40:38.324Z,23.03
2018-04-07T01:41:40.828Z,23.09
2018-04-07T01:42:43.330Z,23.10
2018-04-07T01:43:45.840Z,23.10
2018-04-07T01:44:48.369Z,23.11
2018-04-07T01:45:50.904Z,23.10
2018-04-07T01:46:53.573Z,23.10
2018-04-07T01:47:56.081Z,23.07
2018-04-07T01:48:58.599Z,23.08
2018-04-07T01:50:01.100Z,23.07
2018-04-07T01:51:03.625Z,23.06
2018-04-07T01:52:06.139Z,23.04
2018-04-07T01:53:08.657Z,23.04
2018-04-07T01:54:11.168Z,23.02
2018-04-07T01:55:13.673Z,23.02
2018-04-07T01:56:16.200Z,23.00
2018-04-07T01:57:18.712Z,22.98
2018-04-07T01:58:21.217Z,22.97
2018-04-07T01:59:23.732Z,22.97
2018-04-07T02:00:26.238Z,22.94
2018-04-07T02:01:28.777Z,22.92
2018-04-07T02:02:31.276Z,22.91
2018-04-07T02:03:33.788Z,22.88
2018-04-07T02:04:36.293Z,22.87
2018-04-07T02:05:38.800Z,22.84
2018-04-07T02:06:41.327Z,22.83
2018-04-07T02:07:43.837Z,22.82
2018-04-07T02:08:46.342Z,22.83
2018-04-07T02:09:48.844Z,22.86
2018-04-07T02:10:51.348Z,22.91
2018-04-07T02:11:53.877Z,22.93
2018-04-07T02:12:56.385Z,22.97
2018-04-07T02:13:58.889Z,22.99
2018-04-07T02:15:01.395Z,23.04
2018-04-07T02:16:03.903Z,23.07
2018-04-07T02:17:06.424Z,23.08
2018-04-07T02:18:08.994Z,23.10
2018-04-07T02:19:11.500Z,23.10
2018-04-07T02:20:14.032Z,23.12
2018-04-07T02:21:16.545Z,23.10
2018-04-07T02:22:19.072Z,23.09
2018-04-07T02:23:21.579Z,23.07
2018-04-07T02:24:24.084Z,23.06
2018-04-07T02:25:26.589Z,23.05
2018-04-07T02:26:29.088Z,23.02
2018-04-07T02:27:31.626Z,23.00
2018-04-07T02:28:34.132Z,22.99
2018-04-07T02:29:36.633Z,22.97
2018-04-07T02:30:39.148Z,22.95
2018-04-07T02:31:41.726Z,22.94
2018-04-07T02:32:44.253Z,22.92
2018-04-07T02:33:46.760Z,22.90
2018-04-07T02:34:49.268Z,22.88
2018-04-07T02:35:51.774Z,22.87
2018-04-07T02:36:54.301Z,22.85
2018-04-07T02:37:56.824Z,22.83
2018-04-07T02:38:59.330Z,22.81
2018-04-07T02:40:01.855Z,22.78
2018-04-07T02:41:04.357Z,22.77
2018-04-07T02:42:06.894Z,22.76
2018-04-07T02:43:09.422Z,22.76
2018-04-07T02:44:11.933Z,22.83
2018-04-07T02:45:14.447Z,22.89
2018-04-07T02:46:16.957Z,22.90
2018-04-07T02:47:19.540Z,22.96
2018-04-07T02:48:22.073Z,23.01
2018-04-07T02:49:24.580Z,23.05
2018-04-07T02:50:27.089Z,23.07
2018-04-07T02:51:29.686Z,23.08
2018-04-07T02:52:32.201Z,23.11
2018-04-07T02:53:34.774Z,23.10
2018-04-07T02:54:37.285Z,23.10
2018-04-07T02:55:39.793Z,23.09
2018-04-07T02:56:42.312Z,23.09
2018-04-07T02:57:44.825Z,23.08
2018-04-07T02:58:47.349Z,23.07
2018-04-07T02:59:49.857Z,23.05
2018-04-07T03:00:52.411Z,23.04
2018-04-07T03:01:54.912Z,23.03
2018-04-07T03:02:57.417Z,23.01
2018-04-07T03:03:59.942Z,23.00
2018-04-07T03:05:02.453Z,22.98
2018-04-07T03:06:04.957Z,22.96
2018-04-07T03:07:07.470Z,22.94
2018-04-07T03:08:09.998Z,22.92
2018-04-07T03:09:12.516Z,22.90
2018-04-07T03:10:15.030Z,22.89
2018-04-07T03:11:17.548Z,22.87
2018-04-07T03:12:20.058Z,22.86
2018-04-07T03:13:22.584Z,22.84
2018-04-07T03:14:25.090Z,22.81
2018-04-07T03:15:27.595Z,22.80
2018-04-07T03:16:30.104Z,22.79
2018-04-07T03:17:32.630Z,22.80
2018-04-07T03:18:35.160Z,22.82
2018-04-07T03:19:37.669Z,22.86
2018-04-07T03:20:40.177Z,22.92
2018-04-07T03:21:42.681Z,22.95
2018-04-07T03:22:45.180Z,22.99
2018-04-07T03:23:47.718Z,23.07
2018-04-07T03:24:50.229Z,23.11
2018-04-07T03:25:52.761Z,23.12
2018-04-07T03:26:55.275Z,23.14
2018-04-07T03:27:57.794Z,23.16
2018-04-07T03:29:00.320Z,23.16
2018-04-07T03:30:02.829Z,23.20
2018-04-07T03:31:05.334Z,23.19
2018-04-07T03:32:07.841Z,23.19
2018-04-07T03:33:10.361Z,23.16
2018-04-07T03:34:12.892Z,23.16
2018-04-07T03:35:15.401Z,23.14
2018-04-07T03:36:17.921Z,23.14
2018-04-07T03:37:20.424Z,23.11
2018-04-07T03:38:22.937Z,23.10
2018-04-07T03:39:25.497Z,23.09
2018-04-07T03:40:27.997Z,23.09
2018-04-07T03:41:30.497Z,23.06
2018-04-07T03:42:33.084Z,23.03
2018-04-07T03:43:35.616Z,23.02
2018-04-07T03:44:38.136Z,22.99
2018-04-07T03:45:40.647Z,22.97
2018-04-07T03:46:43.152Z,22.95
2018-04-07T03:47:45.670Z,22.93
2018-04-07T03:48:48.200Z,22.90
2018-04-07T03:49:50.705Z,22.90
2018-04-07T03:50:53.213Z,22.87
2018-04-07T03:51:55.724Z,22.84
2018-04-07T03:52:58.233Z,22.81
2018-04-07T03:54:00.770Z,22.77
2018-04-07T03:55:03.277Z,22.75
2018-04-07T03:56:05.792Z,22.73
2018-04-07T03:57:08.297Z,22.73
2018-04-07T03:58:10.805Z,22.79
2018-04-07T03:59:13.328Z,22.81
2018-04-07T04:00:15.839Z,22.82
2018-04-07T04:01:18.344Z,22.87
2018-04-07T04:02:20.857Z,22.90
2018-04-07T04:03:23.372Z,22.96
2018-04-07T04:04:25.897Z,22.96
2018-04-07T04:05:28.404Z,22.98
2018-04-07T04:06:30.939Z,22.98
2018-04-07T04:07:33.449Z,22.99
2018-04-07T04:08:35.957Z,22.99
2018-04-07T04:09:38.480Z,23.00
2018-04-07T04:10:40.989Z,23.00
2018-04-07T04:11:43.497Z,23.00
2018-04-07T04:12:46.008Z,22.99
2018-04-07T04:13:48.520Z,22.99
2018-04-07T04:14:51.048Z,22.97
2018-04-07T04:15:53.552Z,22.95
2018-04-07T04:16:56.061Z,22.93
2018-04-07T04:17:58.571Z,22.92
2018-04-07T04:19:01.081Z,22.90
2018-04-07T04:20:03.619Z,22.87
2018-04-07T04:21:06.134Z,22.85
2018-04-07T04:22:08.653Z,22.83
2018-04-07T04:23:11.166Z,22.80
2018-04-07T04:24:13.676Z,22.78
2018-04-07T04:25:16.200Z,22.75
2018-04-07T04:26:18.724Z,22.73
2018-04-07T04:27:21.228Z,22.70
2018-04-07T04:28:23.733Z,22.67
2018-04-07T04:29:26.244Z,22.66
2018-04-07T04:30:28.768Z,22.63
2018-04-07T04:31:31.284Z,22.61
2018-04-07T04:32:33.824Z,22.60
2018-04-07T04:33:36.374Z,22.57
2018-04-07T04:34:38.887Z,22.56
2018-04-07T04:35:41.413Z,22.54
2018-04-07T04:36:43.918Z,22.52
2018-04-07T04:37:46.424Z,22.49
2018-04-07T04:38:48.936Z,22.48
2018-04-07T04:39:51.446Z,22.46
2018-04-07T04:40:53.973Z,22.44
2018-04-07T04:41:56.476Z,22.42
2018-04-07T04:42:58.985Z,22.41
2018-04-07T04:44:01.489Z,22.41
2018-04-07T04:45:04.009Z,22.38
2018-04-07T04:46:06.528Z,22.37
2018-04-07T04:47:09.038Z,22.36
2018-04-07T04:48:11.541Z,22.35
2018-04-07T04:49:14.057Z,22.33
2018-04-07T04:50:16.567Z,22.31
2018-04-07T04:51:19.092Z,22.29
2018-04-07T04:52:21.612Z,22.28
2018-04-07T04:53:24.120Z,22.26
2018-04-07T04:54:26.632Z,22.25
2018-04-07T04:55:29.140Z,22.23
2018-04-07T04:56:31.668Z,22.21
2018-04-07T04:57:34.173Z,22.20
2018-04-07T04:58:36.677Z,22.19
2018-04-07T04:59:39.182Z,22.18
2018-04-07T05:00:41.684Z,22.16
2018-04-07T05:01:44.200Z,22.15
2018-04-07T05:02:46.719Z,22.14
2018-04-07T05:03:49.227Z,22.14
2018-04-07T05:04:51.760Z,22.13
2018-04-07T05:05:54.267Z,22.13
2018-04-07T05:06:56.796Z,22.12
2018-04-07T05:07:59.305Z,22.12
2018-04-07T05:09:01.841Z,22.10
2018-04-07T05:10:04.352Z,22.09
2018-04-07T05:11:06.856Z,22.08
2018-04-07T05:12:09.376Z,22.06
2018-04-07T05:13:11.877Z,22.06
2018-04-07T05:14:14.380Z,22.06
2018-04-07T05:15:16.885Z,22.05
2018-04-07T05:16:19.388Z,22.03
2018-04-07T05:17:21.908Z,22.02
2018-04-07T05:18:24.418Z,22.01
2018-04-07T05:19:26.954Z,22.01
2018-04-07T05:20:29.460Z,22.02
2018-04-07T05:21:31.960Z,22.01
2018-04-07T05:22:34.487Z,22.00
2018-04-07T05:23:37.140Z,21.99
2018-04-07T05:24:39.655Z,21.98
2018-04-07T05:25:42.160Z,21.98
2018-04-07T05:26:44.665Z,21.97
2018-04-07T05:27:47.181Z,21.97
2018-04-07T05:28:49.667Z,21.97
2018-04-07T05:29:52.191Z,21.97
2018-04-07T05:30:54.678Z,21.97
2018-04-07T05:31:57.162Z,21.96
2018-04-07T05:32:59.671Z,21.95
2018-04-07T05:34:02.184Z,21.94
2018-04-07T05:35:04.679Z,21.93
2018-04-07T05:36:07.179Z,21.93
2018-04-07T05:37:09.681Z,21.91
2018-04-07T05:38:12.180Z,21.90
2018-04-07T05:39:14.681Z,21.90
2018-04-07T05:40:17.166Z,21.90
2018-04-07T05:41:19.671Z,21.90
2018-04-07T05:42:22.159Z,21.88
2018-04-07T05:43:24.662Z,21.87
2018-04-07T05:44:27.155Z,21.87
2018-04-07T05:45:29.644Z,21.86
2018-04-07T05:46:32.161Z,21.85
2018-04-07T05:47:34.683Z,21.84
2018-04-07T05:48:37.187Z,21.84
2018-04-07T05:49:39.750Z,21.83
2018-04-07T05:50:42.256Z,21.83
2018-04-07T05:51:44.785Z,21.82
2018-04-07T05:52:47.278Z,21.82
2018-04-07T05:53:49.772Z,21.80
2018-04-07T05:54:52.248Z,21.79
2018-04-07T05:55:54.772Z,21.78
2018-04-07T05:56:57.270Z,21.77
2018-04-07T05:57:59.758Z,21.75
2018-04-07T05:59:02.259Z,21.73
2018-04-07T06:00:04.739Z,21.73
2018-04-07T06:01:07.235Z,21.71
2018-04-07T06:02:09.719Z,21.70
2018-04-07T06:03:12.211Z,21.68
2018-04-07T06:04:14.730Z,21.67
2018-04-07T06:05:17.218Z,21.66
2018-04-07T06:06:19.710Z,21.65
2018-04-07T06:07:22.202Z,21.65
2018-04-07T06:08:24.691Z,21.64
2018-04-07T06:09:27.206Z,21.63
2018-04-07T06:10:29.676Z,21.62
2018-04-07T06:11:32.164Z,21.61
2018-04-07T06:12:34.664Z,21.61
2018-04-07T06:13:37.150Z,21.58
2018-04-07T06:14:39.675Z,21.58
2018-04-07T06:15:42.180Z,21.57
2018-04-07T06:16:44.672Z,21.57
2018-04-07T06:17:47.150Z,21.56
2018-04-07T06:18:49.620Z,21.56
2018-04-07T06:19:52.126Z,21.54
2018-04-07T06:20:54.615Z,21.54
2018-04-07T06:21:57.110Z,21.53
2018-04-07T06:22:59.612Z,21.52
2018-04-07T06:24:02.150Z,21.54
2018-04-07T06:25:04.655Z,21.53
2018-04-07T06:26:07.124Z,21.52
2018-04-07T06:27:09.611Z,21.52
2018-04-07T06:28:12.106Z,21.50
2018-04-07T06:29:14.604Z,21.50
2018-04-07T06:30:17.115Z,21.50
2018-04-07T06:31:19.602Z,21.50
2018-04-07T06:32:22.240Z,21.49
2018-04-07T06:33:24.745Z,21.48
2018-04-07T06:34:27.276Z,21.48
2018-04-07T06:35:29.782Z,21.48
2018-04-07T06:36:32.249Z,21.47
2018-04-07T06:37:34.725Z,21.46
2018-04-07T06:38:37.196Z,21.45
2018-04-07T06:39:39.679Z,21.46
2018-04-07T06:40:42.193Z,21.45
2018-04-07T06:41:44.709Z,21.44
2018-04-07T06:42:47.203Z,21.43
2018-04-07T06:43:49.695Z,21.43
2018-04-07T06:44:52.426Z,21.43
2018-04-07T06:45:54.956Z,21.42
2018-04-07T06:46:57.461Z,21.41
2018-04-07T06:47:59.952Z,21.41
2018-04-07T06:49:02.428Z,21.40
2018-04-07T06:50:04.903Z,21.39
2018-04-07T06:51:07.427Z,21.38
2018-04-07T06:52:09.919Z,21.38
2018-04-07T06:53:12.433Z,21.37
2018-04-07T06:54:14.937Z,21.36
2018-04-07T06:55:17.430Z,21.36
2018-04-07T06:56:19.945Z,21.36
2018-04-07T06:57:22.452Z,21.35
2018-04-07T06:58:24.928Z,21.34
2018-04-07T06:59:27.433Z,21.33
2018-04-07T07:00:29.945Z,21.33
2018-04-07T07:01:32.454Z,21.32
2018-04-07T07:02:34.942Z,21.32
2018-04-07T07:03:37.437Z,21.32
2018-04-07T07:04:39.927Z,21.31
2018-04-07T07:05:42.603Z,21.30
2018-04-07T07:06:45.123Z,21.30
2018-04-07T07:07:47.603Z,21.30
2018-04-07T07:08:50.094Z,21.30
2018-04-07T07:09:52.587Z,21.30
2018-04-07T07:10:55.089Z,21.29
2018-04-07T07:11:57.637Z,21.28
2018-04-07T07:13:00.143Z,21.29
2018-04-07T07:14:02.638Z,21.28
2018-04-07T07:15:05.200Z,21.27
2018-04-07T07:16:07.719Z,21.27
2018-04-07T07:17:10.230Z,21.26
2018-04-07T07:18:12.722Z,21.26
2018-04-07T07:19:15.196Z,21.25
2018-04-07T07:20:17.997Z,21.25
2018-04-07T07:21:20.559Z,21.24
2018-04-07T07:22:23.059Z,21.23
2018-04-07T07:23:25.566Z,21.22
2018-04-07T07:24:28.055Z,21.22
2018-04-07T07:25:30.591Z,21.21
2018-04-07T07:26:33.094Z,21.20
2018-04-07T07:27:35.616Z,21.19
2018-04-07T07:28:38.111Z,21.19
2018-04-07T07:29:40.616Z,21.18
2018-04-07T07:30:43.109Z,21.17
2018-04-07T07:31:45.607Z,21.16
2018-04-07T07:32:48.133Z,21.16
2018-04-07T07:33:50.644Z,21.15
2018-04-07T07:34:53.130Z,21.15
2018-04-07T07:35:55.645Z,21.14
2018-04-07T07:36:58.148Z,21.13
2018-04-07T07:38:00.669Z,21.12
2018-04-07T07:39:03.180Z,21.12
2018-04-07T07:40:05.674Z,21.11
2018-04-07T07:41:08.166Z,21.11
2018-04-07T07:42:10.692Z,21.10
2018-04-07T07:43:13.226Z,21.10
2018-04-07T07:44:15.738Z,21.10
2018-04-07T07:45:18.237Z,21.09
2018-04-07T07:46:20.717Z,21.09
2018-04-07T07:47:23.204Z,21.09
2018-04-07T07:48:25.711Z,21.08
2018-04-07T07:49:28.247Z,21.07
2018-04-07T07:50:30.805Z,21.07
2018-04-07T07:51:33.295Z,21.06
2018-04-07T07:52:35.790Z,21.06
2018-04-07T07:53:38.328Z,21.06
2018-04-07T07:54:40.804Z,21.06
2018-04-07T07:55:43.284Z,21.06
2018-04-07T07:56:45.812Z,21.05
2018-04-07T07:57:48.284Z,21.05
2018-04-07T07:58:50.772Z,21.04
2018-04-07T07:59:53.302Z,21.04
2018-04-07T08:00:55.752Z,21.03
2018-04-07T08:01:58.232Z,21.03
2018-04-07T08:03:00.705Z,21.03
2018-04-07T08:04:03.211Z,21.03
2018-04-07T08:05:05.702Z,21.02
2018-04-07T08:06:08.172Z,21.01
2018-04-07T08:07:10.658Z,21.00
2018-04-07T08:08:13.142Z,20.98
2018-04-07T08:09:15.628Z,20.93
2018-04-07T08:10:18.119Z,20.90
2018-04-07T08:11:20.618Z,20.79
2018-04-07T08:12:23.138Z,20.73
2018-04-07T08:13:25.664Z,20.67
2018-04-07T08:14:28.229Z,20.64
2018-04-07T08:15:30.934Z,20.59
2018-04-07T08:16:33.506Z,20.54
2018-04-07T08:17:36.112Z,20.47
2018-04-07T08:18:38.822Z,20.45
2018-04-07T08:19:41.473Z,20.37
2018-04-07T08:20:44.071Z,20.33
2018-04-07T08:21:46.671Z,20.27
2018-04-07T08:22:49.150Z,20.26
2018-04-07T08:23:51.695Z,20.24
2018-04-07T08:24:54.242Z,20.19
2018-04-07T08:25:56.769Z,20.18
2018-04-07T08:26:59.284Z,20.18
2018-04-07T08:28:01.824Z,20.14
2018-04-07T08:29:04.343Z,20.09
2018-04-07T08:30:06.882Z,20.07
2018-04-07T08:31:09.393Z,20.07
2018-04-07T08:32:12.018Z,20.09
2018-04-07T08:33:14.548Z,20.10
2018-04-07T08:34:17.110Z,20.09
2018-04-07T08:35:19.652Z,20.10
2018-04-07T08:36:22.158Z,20.10
2018-04-07T08:37:24.683Z,20.11
2018-04-07T08:38:27.240Z,20.12
2018-04-07T08:39:29.781Z,20.13
2018-04-07T08:40:34.140Z,20.12
2018-04-07T08:41:36.652Z,20.12
2018-04-07T08:42:39.179Z,20.13
2018-04-07T08:43:41.684Z,20.14
2018-04-07T08:44:44.161Z,20.16
2018-04-07T08:45:46.689Z,20.14
2018-04-07T08:46:49.178Z,20.13
2018-04-07T08:47:51.670Z,20.14
2018-04-07T08:48:54.147Z,20.13
2018-04-07T08:49:56.648Z,20.13
2018-04-07T08:50:59.191Z,20.11
2018-04-07T08:52:01.687Z,20.06
2018-04-07T08:53:04.178Z,20.06
2018-04-07T08:54:06.675Z,20.05
2018-04-07T08:55:09.170Z,20.05
2018-04-07T08:56:11.743Z,20.06
2018-04-07T08:57:14.219Z,20.06
2018-04-07T08:58:16.715Z,20.05
2018-04-07T08:59:19.258Z,20.03
2018-04-07T09:00:21.732Z,19.98
2018-04-07T09:01:24.235Z,19.99
2018-04-07T09:02:26.732Z,19.99
2018-04-07T09:03:29.297Z,19.99
2018-04-07T09:04:31.771Z,19.98
2018-04-07T09:05:34.390Z,19.98
2018-04-07T09:06:36.966Z,19.98
2018-04-07T09:07:39.500Z,20.01
2018-04-07T09:08:41.991Z,20.01
2018-04-07T09:09:44.525Z,20.03
2018-04-07T09:10:47.068Z,20.05
2018-04-07T09:11:49.590Z,20.07
2018-04-07T09:12:52.083Z,20.08
2018-04-07T09:13:54.589Z,20.09
2018-04-07T09:14:57.214Z,20.07
2018-04-07T09:15:59.699Z,20.05
2018-04-07T09:17:02.192Z,20.05
2018-04-07T09:18:04.682Z,20.06
2018-04-07T09:19:07.170Z,19.99
2018-04-07T09:20:09.665Z,19.99
2018-04-07T09:21:12.179Z,19.98
2018-04-07T09:22:14.690Z,20.00
2018-04-07T09:23:17.275Z,20.01
2018-04-07T09:24:19.766Z,20.03
2018-04-07T09:25:22.289Z,20.02
2018-04-07T09:26:24.784Z,20.04
2018-04-07T09:27:27.276Z,20.05
2018-04-07T09:28:29.767Z,20.08
2018-04-07T09:29:33.058Z,20.10
2018-04-07T09:30:35.555Z,20.11
2018-04-07T09:31:38.037Z,20.12
2018-04-07T09:32:40.528Z,20.09
2018-04-07T09:33:43.029Z,20.12
2018-04-07T09:34:45.501Z,20.14
2018-04-07T09:35:48.048Z,20.17
2018-04-07T09:36:50.552Z,20.21
2018-04-07T09:37:53.059Z,20.23
2018-04-07T09:38:55.569Z,20.26
2018-04-07T09:39:58.127Z,20.29
2018-04-07T09:41:00.639Z,20.33
2018-04-07T09:42:03.161Z,20.36
2018-04-07T09:43:05.709Z,20.39
2018-04-07T09:44:08.204Z,20.43
2018-04-07T09:45:10.708Z,20.45
2018-04-07T09:46:13.226Z,20.47
2018-04-07T09:47:15.715Z,20.49
2018-04-07T09:48:18.251Z,20.50
2018-04-07T09:49:20.753Z,20.52
2018-04-07T09:50:23.242Z,20.53
2018-04-07T09:51:25.835Z,20.56
2018-04-07T09:52:28.334Z,20.58
2018-04-07T09:53:30.852Z,20.59
2018-04-07T09:54:33.364Z,20.60
2018-04-07T09:55:35.875Z,20.62
2018-04-07T09:56:38.368Z,20.63
2018-04-07T09:57:40.885Z,20.64
2018-04-07T09:58:43.444Z,20.66
2018-04-07T09:59:46.125Z,20.67
2018-04-07T10:00:48.614Z,20.68
2018-04-07T10:01:51.099Z,20.69
2018-04-07T10:02:59.183Z,20.70
2018-04-07T10:04:01.726Z,20.71
2018-04-07T10:05:04.222Z,20.73
2018-04-07T10:06:06.697Z,20.73
2018-04-07T10:07:09.345Z,20.75
2018-04-07T10:08:11.839Z,20.76
2018-04-07T10:09:14.348Z,20.76
2018-04-07T10:10:16.842Z,20.77
2018-04-07T10:11:19.341Z,20.78
2018-04-07T10:12:21.849Z,20.78
2018-04-07T10:13:24.386Z,20.79
2018-04-07T10:14:26.971Z,20.80
2018-04-07T10:15:29.498Z,20.80
2018-04-07T10:16:31.982Z,20.81
2018-04-07T10:17:34.545Z,20.81
2018-04-07T10:18:37.040Z,20.82
2018-04-07T10:19:39.561Z,20.83
2018-04-07T10:20:42.210Z,20.83
2018-04-07T10:21:44.698Z,20.84
2018-04-07T10:22:47.207Z,20.84
2018-04-07T10:23:49.851Z,20.87
2018-04-07T10:24:52.408Z,20.87
2018-04-07T10:25:54.909Z,20.88
2018-04-07T10:26:57.420Z,20.90
2018-04-07T10:27:59.949Z,20.90
2018-04-07T10:29:02.465Z,20.91
2018-04-07T10:30:04.984Z,20.92
2018-04-07T10:31:07.503Z,20.96
2018-04-07T10:32:10.077Z,20.98
2018-04-07T10:33:12.615Z,20.99
2018-04-07T10:34:15.125Z,21.00
2018-04-07T10:35:17.644Z,21.00
2018-04-07T10:36:20.185Z,21.00
2018-04-07T10:37:22.706Z,20.99
2018-04-07T10:38:25.199Z,20.98
2018-04-07T10:39:27.722Z,20.96
2018-04-07T10:40:30.210Z,20.97
2018-04-07T10:41:32.713Z,20.98
2018-04-07T10:42:35.216Z,20.98
2018-04-07T10:43:37.721Z,20.97
2018-04-07T10:44:40.394Z,20.97
2018-04-07T10:45:42.896Z,20.98
2018-04-07T10:46:45.509Z,20.98
2018-04-07T10:47:48.016Z,20.99
2018-04-07T10:48:50.521Z,20.98
2018-04-07T10:49:53.048Z,20.98
2018-04-07T10:50:55.553Z,20.99
2018-04-07T10:51:58.086Z,20.99
2018-04-07T10:53:00.611Z,21.00
2018-04-07T10:54:03.113Z,20.99
2018-04-07T10:55:05.685Z,20.99
2018-04-07T10:56:08.228Z,20.99
2018-04-07T10:57:10.720Z,21.01
2018-04-07T10:58:13.272Z,21.01
2018-04-07T10:59:16.538Z,21.01
2018-04-07T11:00:19.106Z,21.02
2018-04-07T11:01:21.590Z,21.03
2018-04-07T11:02:24.089Z,21.03
2018-04-07T11:03:26.572Z,21.02
2018-04-07T11:04:29.134Z,21.04
2018-04-07T11:05:31.646Z,21.03
2018-04-07T11:06:34.138Z,21.04
2018-04-07T11:07:36.653Z,21.03
2018-04-07T11:08:39.151Z,21.03
2018-04-07T11:09:41.650Z,21.03
2018-04-07T11:10:44.261Z,21.04
2018-04-07T11:11:46.750Z,21.03
2018-04-07T11:12:49.238Z,21.03
2018-04-07T11:13:51.867Z,21.04
2018-04-07T11:14:54.348Z,21.04
2018-04-07T11:15:56.884Z,21.04
2018-04-07T11:16:59.407Z,21.05
2018-04-07T11:18:01.946Z,21.05
2018-04-07T11:19:04.429Z,21.05
2018-04-07T11:20:06.904Z,21.06
2018-04-07T11:21:09.469Z,21.07
2018-04-07T11:22:11.961Z,21.08
2018-04-07T11:23:14.436Z,21.08
2018-04-07T11:24:16.937Z,21.08
2018-04-07T11:25:19.454Z,21.07
2018-04-07T11:26:22.045Z,21.08
2018-04-07T11:27:24.534Z,21.08
2018-04-07T11:28:27.095Z,21.08
2018-04-07T11:29:29.590Z,21.09
2018-04-07T11:30:32.111Z,21.09
2018-04-07T11:31:34.679Z,21.09
2018-04-07T11:32:37.176Z,21.10
2018-04-07T11:33:39.683Z,21.10
2018-04-07T11:34:42.177Z,21.10
2018-04-07T11:35:44.704Z,21.10
2018-04-07T11:36:47.281Z,21.09
2018-04-07T11:37:49.776Z,21.09
2018-04-07T11:38:52.284Z,21.10
2018-04-07T11:39:54.859Z,21.10
2018-04-07T11:40:57.350Z,21.10
2018-04-07T11:42:00.788Z,21.11
2018-04-07T11:43:03.350Z,21.12
2018-04-07T11:44:06.977Z,21.12
2018-04-07T11:45:09.519Z,21.12
2018-04-07T11:46:12.261Z,21.13
2018-04-07T11:47:15.037Z,21.12
2018-04-07T11:48:17.531Z,21.12
2018-04-07T11:49:20.018Z,21.12
2018-04-07T11:50:22.510Z,21.11
2018-04-07T11:52:32.155Z,21.11
2018-04-07T11:53:34.678Z,21.11
2018-04-07T11:54:37.156Z,21.12
2018-04-07T11:55:39.653Z,21.12
2018-04-07T11:56:42.156Z,21.13
2018-04-07T11:57:44.667Z,21.13
2018-04-07T11:58:47.175Z,21.12
2018-04-07T11:59:49.686Z,21.13
2018-04-07T12:00:52.207Z,21.13
2018-04-07T12:01:54.709Z,21.13
2018-04-07T12:02:57.194Z,21.14
2018-04-07T12:03:59.683Z,21.14
2018-04-07T12:05:02.197Z,21.15
2018-04-07T12:06:04.708Z,21.14
2018-04-07T12:07:07.242Z,21.15
2018-04-07T12:08:09.754Z,21.16
2018-04-07T12:09:12.284Z,21.16
2018-04-07T12:10:14.922Z,21.16
2018-04-07T12:11:17.687Z,21.17
2018-04-07T12:12:20.221Z,21.17
2018-04-07T12:13:22.811Z,21.16
2018-04-07T12:14:25.604Z,21.17
2018-04-07T12:15:28.103Z,21.16
2018-04-07T12:16:30.585Z,21.16
2018-04-07T12:17:33.077Z,21.16
2018-04-07T12:18:37.345Z,21.17
2018-04-07T12:19:39.901Z,21.16
2018-04-07T12:20:42.573Z,21.17
2018-04-07T12:21:45.183Z,21.16
2018-04-07T12:22:47.672Z,21.17
2018-04-07T12:23:50.250Z,21.16
2018-04-07T12:24:52.758Z,21.16
2018-04-07T12:25:55.255Z,21.18
2018-04-07T12:26:57.746Z,21.19
2018-04-07T12:28:00.267Z,21.20
2018-04-07T12:29:02.796Z,21.22
2018-04-07T12:30:05.307Z,21.24
2018-04-07T12:31:07.799Z,21.24
2018-04-07T12:32:10.304Z,21.23
2018-04-07T12:33:12.834Z,21.22
2018-04-07T12:34:15.344Z,21.21
2018-04-07T12:35:17.963Z,21.21
2018-04-07T12:36:20.645Z,21.21
2018-04-07T12:37:23.158Z,21.20
2018-04-07T12:38:25.673Z,21.19
2018-04-07T12:39:28.289Z,21.19
2018-04-07T12:40:30.821Z,21.18
2018-04-07T12:41:33.366Z,21.17
2018-04-07T12:42:35.924Z,21.17
2018-04-07T12:43:38.429Z,21.17
2018-04-07T12:44:40.920Z,21.16
2018-04-07T12:45:43.421Z,21.15
2018-04-07T12:46:45.916Z,21.14
2018-04-07T12:47:48.515Z,21.15
2018-04-07T12:48:51.080Z,21.14
2018-04-07T12:49:53.560Z,21.14
2018-04-07T12:50:56.099Z,21.13
2018-04-07T12:51:58.595Z,21.12
2018-04-07T12:53:01.106Z,21.13
2018-04-07T12:54:03.588Z,21.12
2018-04-07T12:55:06.069Z,21.12
2018-04-07T12:56:08.592Z,21.12
2018-04-07T12:57:11.087Z,21.12
2018-04-07T12:58:13.613Z,21.11
2018-04-07T12:59:16.096Z,21.12
2018-04-07T13:00:18.626Z,21.11
2018-04-07T13:01:21.133Z,21.11
2018-04-07T13:02:23.642Z,21.11
2018-04-07T13:03:26.203Z,21.10
2018-04-07T13:04:28.684Z,21.10
2018-04-07T13:05:31.183Z,21.11
2018-04-07T13:06:33.675Z,21.10
2018-04-07T13:07:36.240Z,21.09
2018-04-07T13:08:38.807Z,21.09
2018-04-07T13:09:41.325Z,21.08
2018-04-07T13:10:43.828Z,21.08
2018-04-07T13:11:46.328Z,21.09
2018-04-07T13:12:48.827Z,21.08
2018-04-07T13:13:51.394Z,21.09
2018-04-07T13:14:53.889Z,21.10
2018-04-07T13:15:56.372Z,21.09
2018-04-07T13:16:58.855Z,21.09
2018-04-07T13:18:01.350Z,21.09
2018-04-07T13:19:03.851Z,21.09
2018-04-07T13:20:06.351Z,21.09
2018-04-07T13:21:08.854Z,21.09
2018-04-07T13:22:11.351Z,21.08
2018-04-07T13:23:13.924Z,21.08
2018-04-07T13:24:16.446Z,21.08
2018-04-07T13:25:19.047Z,21.08
2018-04-07T13:26:21.546Z,21.08